Sandolandia, Brazil
Current Conditions -  °F | °C
As of 1:00 PM on Sunday 25 Jan 2015 (Local Time) from SBPJ Reporting Station
Scattered Clouds Scattered Clouds  
Wind Chill: 81°   Ceiling: Unl
Heat Index: 85°   Visibility: 6mi
Dew Point: 72°   Wind: 10mph
Humidity: 74%   Direction: 200°SSW
Pressure: 29.94"   Gusts: NA
Location:  12.54°S, 49.92°W
Report Text: SBPJ 251600Z 20009KT 9999 SCT020 FEW035TCU 27/22 Q1014
Loading
Personal Weather Stations






























Interactive Weather Map New forecast layout! Learn more

10-Day Weather Forecast

Advertisements
Track Severe Weather on mobile